Time;durP1;ratioP1;P1;durP2;ratioP2;P2;SDS_P1;SDS_P2;PMS_P1;PMS_P2;Temp;Humidity;BMP_temperature;BMP_pressure;BME280_temperature;BME280_humidity;BME280_pressure;Samples;Min_cycle;Max_cycle;Signal;HPM_P1;HPM_P2
2023/10/03 00:00:51;;;;;;;28.92;14.07;;;;;;;18.01;93.17;101230.41;7393865;19;19925;-70
2023/10/03 00:03:20;;;;;;;27.55;13.93;;;;;;;18.00;93.54;101217.81;7397620;19;19961;-69
2023/10/03 00:05:51;;;;;;;28.90;13.63;;;;;;;18.00;93.26;101215.09;7397609;19;20352;-68
2023/10/03 00:08:22;;;;;;;27.42;12.60;;;;;;;17.98;93.35;101204.44;7397682;19;20022;-69
2023/10/03 00:10:51;;;;;;;26.65;15.15;;;;;;;17.95;93.36;101195.81;7396736;19;19947;-69
2023/10/03 00:13:19;;;;;;;25.05;13.80;;;;;;;17.93;93.51;101187.03;7397372;19;20285;-69
2023/10/03 00:15:48;;;;;;;26.75;13.18;;;;;;;17.92;93.50;101172.56;7393403;19;19927;-69
2023/10/03 00:18:19;;;;;;;27.55;13.60;;;;;;;17.90;93.27;101169.25;7397141;19;19919;-69
2023/10/03 00:20:47;;;;;;;28.88;13.60;;;;;;;17.90;93.57;101171.13;7398131;19;20568;-69
2023/10/03 00:23:16;;;;;;;29.55;13.02;;;;;;;17.88;93.37;101163.16;7396762;19;20260;-69
2023/10/03 00:25:47;;;;;;;28.52;14.38;;;;;;;17.87;93.19;101164.22;7397573;19;19958;-69
2023/10/03 00:28:15;;;;;;;28.25;14.35;;;;;;;17.83;93.63;101162.13;7397337;19;19947;-69
2023/10/03 00:30:45;;;;;;;28.60;13.90;;;;;;;17.83;93.57;101152.06;7392814;19;19933;-69
2023/10/03 00:33:14;;;;;;;31.05;14.77;;;;;;;17.80;93.67;101147.06;7397526;19;20428;-68
2023/10/03 00:35:43;;;;;;;27.27;13.32;;;;;;;17.79;93.37;101148.13;7396699;19;20010;-69
2023/10/03 00:38:13;;;;;;;28.42;15.43;;;;;;;17.79;93.42;101142.66;7396093;19;20002;-68
2023/10/03 00:40:43;;;;;;;28.40;13.98;;;;;;;17.77;93.62;101149.41;7394084;19;19922;-69
2023/10/03 00:43:14;;;;;;;30.50;14.30;;;;;;;17.78;93.46;101142.88;7397236;19;19930;-69
2023/10/03 00:45:43;;;;;;;28.63;13.73;;;;;;;17.76;93.61;101136.81;7394268;19;20302;-70
2023/10/03 00:48:12;;;;;;;31.85;14.95;;;;;;;17.74;93.72;101134.31;7395548;19;19926;-69
2023/10/03 00:50:42;;;;;;;32.95;14.73;;;;;;;17.73;93.26;101113.56;7396614;19;19926;-69
2023/10/03 00:53:13;;;;;;;29.60;14.93;;;;;;;17.71;93.33;101110.22;7398470;19;19922;-68
2023/10/03 00:55:45;;;;;;;35.15;15.25;;;;;;;17.70;93.49;101094.91;7395659;19;19942;-67
2023/10/03 00:58:28;;;;;;;30.88;13.73;;;;;;;17.69;93.45;101085.91;7396283;19;19918;-68
2023/10/03 01:00:57;;;;;;;33.70;15.20;;;;;;;17.70;93.37;101075.84;7390093;19;19926;-67
2023/10/03 01:03:31;;;;;;;28.92;14.35;;;;;;;17.67;92.73;101057.22;7395880;19;20766;-68
2023/10/03 01:06:04;;;;;;;31.63;14.65;;;;;;;17.69;93.16;101049.63;7395806;19;19929;-68
2023/10/03 01:08:36;;;;;;;32.88;14.00;;;;;;;17.66;93.19;101036.47;7396399;19;19918;-68
2023/10/03 01:11:07;;;;;;;30.88;14.50;;;;;;;17.63;92.90;101020.56;7396238;19;19929;-68
2023/10/03 01:13:39;;;;;;;28.65;13.27;;;;;;;17.62;92.64;101008.00;7395114;19;19934;-67
2023/10/03 01:16:07;;;;;;;30.40;13.95;;;;;;;17.62;92.88;100994.38;7398393;19;19921;-67
2023/10/03 01:18:38;;;;;;;32.70;14.38;;;;;;;17.61;92.99;100979.91;7401504;19;19934;-67
2023/10/03 01:21:08;;;;;;;32.30;13.75;;;;;;;17.60;92.95;100980.94;7400394;19;19930;-68
2023/10/03 01:23:40;;;;;;;29.35;13.35;;;;;;;17.59;92.28;100954.78;7400856;19;19943;-68
2023/10/03 01:26:09;;;;;;;25.13;12.60;;;;;;;17.57;92.57;100945.97;7402366;19;20391;-68
2023/10/03 01:28:39;;;;;;;27.27;13.15;;;;;;;17.57;92.51;100942.38;7400172;19;19923;-68
2023/10/03 01:31:08;;;;;;;26.60;11.82;;;;;;;17.55;92.17;100933.63;7397817;19;19951;-68
2023/10/03 01:33:37;;;;;;;27.13;11.30;;;;;;;17.53;92.35;100933.00;7402215;19;19923;-68
2023/10/03 01:36:06;;;;;;;25.73;12.13;;;;;;;17.51;92.10;100949.56;7400714;19;19931;-68
2023/10/03 01:38:34;;;;;;;26.33;11.75;;;;;;;17.49;91.93;100961.72;7397843;19;19923;-68
2023/10/03 01:41:07;;;;;;;29.35;11.88;;;;;;;17.46;91.50;100976.63;7401480;19;19922;-68
2023/10/03 01:43:38;;;;;;;27.40;12.40;;;;;;;17.42;91.51;100969.13;7399438;19;19923;-68
2023/10/03 01:46:07;;;;;;;28.48;12.55;;;;;;;17.40;91.74;100955.72;7396961;19;19923;-67
2023/10/03 01:48:36;;;;;;;26.95;11.75;;;;;;;17.37;91.53;100939.81;7400838;19;19929;-67
2023/10/03 01:51:06;;;;;;;27.67;11.20;;;;;;;17.33;91.83;100930.44;7400965;19;19927;-67
2023/10/03 01:53:35;;;;;;;29.98;12.40;;;;;;;17.31;91.41;100915.34;7401804;19;19943;-67
2023/10/03 01:56:06;;;;;;;29.67;11.55;;;;;;;17.31;91.61;100916.19;7400573;19;19939;-67
2023/10/03 01:58:35;;;;;;;26.70;11.00;;;;;;;17.29;91.36;100896.53;7396992;19;19926;-68
2023/10/03 02:01:03;;;;;;;26.58;11.80;;;;;;;17.29;91.73;100884.78;7398317;19;19927;-67
2023/10/03 02:03:32;;;;;;;29.08;12.18;;;;;;;17.28;91.35;100883.13;7400811;19;20428;-68
2023/10/03 02:06:01;;;;;;;26.60;11.88;;;;;;;17.27;91.60;100856.94;7398545;19;20522;-67
2023/10/03 02:08:32;;;;;;;28.98;10.73;;;;;;;17.24;91.51;100850.06;7399033;19;19918;-68
2023/10/03 02:11:05;;;;;;;25.55;10.05;;;;;;;17.21;92.04;100848.59;7400270;19;20302;-67
2023/10/03 02:13:38;;;;;;;25.83;11.00;;;;;;;17.18;91.79;100840.03;7398180;19;19919;-67
2023/10/03 02:16:07;;;;;;;28.85;12.38;;;;;;;17.16;91.39;100834.00;7399705;19;20356;-68
2023/10/03 02:18:36;;;;;;;23.23;10.80;;;;;;;17.14;91.67;100830.66;7399909;19;19926;-68
2023/10/03 02:21:05;;;;;;;25.85;10.68;;;;;;;17.10;91.44;100816.66;7401762;19;19962;-67
2023/10/03 02:23:32;;;;;;;26.10;10.77;;;;;;;17.10;91.65;100808.47;7399092;19;20479;-68
2023/10/03 02:26:10;;;;;;;24.70;10.68;;;;;;;17.07;91.63;100810.81;7399326;19;19929;-68
2023/10/03 02:28:42;;;;;;;24.55;10.32;;;;;;;17.09;91.25;100803.25;7395616;19;19918;-68
2023/10/03 02:31:11;;;;;;;23.77;10.88;;;;;;;17.08;91.33;100782.56;7397628;19;19923;-69
2023/10/03 02:33:43;;;;;;;24.95;10.23;;;;;;;17.08;91.69;100772.50;7399189;19;19937;-68
2023/10/03 02:36:14;;;;;;;26.58;10.77;;;;;;;17.07;91.65;100770.00;7400694;19;19922;-68
2023/10/03 02:38:43;;;;;;;22.70;10.73;;;;;;;17.05;91.39;100762.03;7399093;19;19918;-68
2023/10/03 02:41:13;;;;;;;30.05;10.90;;;;;;;17.05;91.26;100755.75;7398197;19;19930;-68
2023/10/03 02:43:46;;;;;;;23.80;10.60;;;;;;;17.05;91.17;100744.88;7397859;19;19929;-68
2023/10/03 02:46:15;;;;;;;26.45;10.90;;;;;;;17.04;91.40;100719.53;7398049;19;19918;-68
2023/10/03 02:48:44;;;;;;;25.23;10.27;;;;;;;17.04;90.81;100708.66;7400100;19;19986;-68
2023/10/03 02:51:14;;;;;;;26.25;11.10;;;;;;;17.03;91.05;100704.28;7400071;19;19922;-68
2023/10/03 02:53:43;;;;;;;25.55;11.18;;;;;;;17.05;90.81;100696.72;7399387;19;19918;-67
2023/10/03 02:56:15;;;;;;;24.85;9.77;;;;;;;17.05;90.44;100688.53;7397964;19;19931;-67
2023/10/03 02:58:46;;;;;;;25.20;10.18;;;;;;;17.06;90.26;100689.38;7398478;19;20372;-67
2023/10/03 03:01:17;;;;;;;24.15;9.77;;;;;;;17.06;90.39;100690.22;7396865;19;19926;-67
2023/10/03 03:03:45;;;;;;;23.90;10.07;;;;;;;17.09;90.50;100665.25;7398194;19;19975;-68
2023/10/03 03:06:15;;;;;;;22.70;10.52;;;;;;;17.11;90.40;100659.59;7398217;19;19936;-68
2023/10/03 03:08:44;;;;;;;21.83;10.25;;;;;;;17.13;90.04;100680.09;7399082;19;20400;-67
2023/10/03 03:11:14;;;;;;;26.17;10.07;;;;;;;17.16;89.24;100671.50;7400035;19;19931;-67
2023/10/03 03:13:42;;;;;;;22.85;9.80;;;;;;;17.20;89.23;100680.88;7396684;19;19915;-68
2023/10/03 03:16:15;;;;;;;25.90;10.35;;;;;;;17.23;88.71;100685.03;7397784;19;19919;-67
2023/10/03 03:18:46;;;;;;;26.88;11.68;;;;;;;17.27;88.67;100683.50;7397565;19;19919;-68
2023/10/03 03:21:20;;;;;;;24.02;10.25;;;;;;;17.31;88.51;100673.00;7396627;19;20010;-67
2023/10/03 03:24:00;;;;;;;26.67;10.68;;;;;;;17.33;88.04;100658.13;7398375;19;19918;-68
2023/10/03 03:26:36;;;;;;;27.02;10.25;;;;;;;17.37;87.48;100655.78;7397443;19;19930;-68
2023/10/03 03:29:19;;;;;;;25.50;10.18;;;;;;;17.42;87.21;100664.09;7399325;19;19993;-68
2023/10/03 03:31:52;;;;;;;26.52;10.50;;;;;;;17.46;87.07;100654.41;7395752;19;19998;-67
2023/10/03 03:34:21;;;;;;;26.30;10.15;;;;;;;17.50;87.03;100653.72;7398271;19;19927;-68
2023/10/03 03:36:55;;;;;;;27.15;10.40;;;;;;;17.53;86.59;100652.44;7396865;19;19926;-68
2023/10/03 03:39:26;;;;;;;28.48;10.30;;;;;;;17.56;86.40;100649.28;7393053;19;20352;-68
2023/10/03 03:41:55;;;;;;;23.73;9.77;;;;;;;17.57;86.32;100643.56;7395229;19;19978;-68
2023/10/03 03:44:25;;;;;;;26.80;11.25;;;;;;;17.60;85.62;100656.75;7398759;19;19950;-67
2023/10/03 03:46:56;;;;;;;26.13;11.15;;;;;;;17.62;85.40;100645.66;7396803;19;20382;-68
2023/10/03 03:49:25;;;;;;;23.45;9.13;;;;;;;17.62;85.83;100643.75;7397143;19;19935;-67
2023/10/03 03:51:54;;;;;;;25.20;11.05;;;;;;;17.62;85.28;100632.88;7398898;19;19930;-68
2023/10/03 03:54:22;;;;;;;24.90;10.80;;;;;;;17.63;85.21;100640.00;7398033;19;20349;-68
2023/10/03 03:56:51;;;;;;;24.35;10.18;;;;;;;17.63;85.68;100623.63;7397158;19;19926;-68
2023/10/03 03:59:21;;;;;;;28.05;11.68;;;;;;;17.68;85.16;100626.50;7399002;19;19930;-68
2023/10/03 04:01:50;;;;;;;25.58;10.30;;;;;;;17.73;84.87;100622.28;7397903;19;19919;-68
2023/10/03 04:04:22;;;;;;;25.08;11.00;;;;;;;17.76;84.49;100621.78;7396779;19;19933;-67
2023/10/03 04:06:52;;;;;;;29.42;11.38;;;;;;;17.79;84.37;100624.06;7396140;19;19915;-67
2023/10/03 04:09:20;;;;;;;28.35;11.45;;;;;;;17.79;84.48;100638.50;7397544;19;19933;-67
2023/10/03 04:11:49;;;;;;;24.77;10.50;;;;;;;17.81;84.75;100620.06;7397500;19;19933;-67
2023/10/03 04:14:18;;;;;;;32.42;11.98;;;;;;;17.82;84.68;100629.88;7395033;19;19956;-68
2023/10/03 04:16:48;;;;;;;27.50;10.65;;;;;;;17.84;84.07;100619.59;7395939;19;20345;-68
2023/10/03 04:19:18;;;;;;;24.55;10.90;;;;;;;17.82;84.03;100608.06;7398204;19;19926;-68
2023/10/03 04:21:50;;;;;;;26.25;10.20;;;;;;;17.82;83.78;100599.09;7395168;19;20204;-68
2023/10/03 04:24:19;;;;;;;27.50;11.40;;;;;;;17.80;84.30;100591.13;7396546;19;19962;-67
2023/10/03 04:26:47;;;;;;;27.05;10.73;;;;;;;17.79;84.53;100594.91;7398136;19;19933;-68
2023/10/03 04:29:16;;;;;;;30.25;11.32;;;;;;;17.78;84.33;100587.78;7396862;19;19919;-67
2023/10/03 04:31:46;;;;;;;27.25;10.77;;;;;;;17.77;83.88;100579.88;7396042;19;20373;-67
2023/10/03 04:34:17;;;;;;;21.55;10.02;;;;;;;17.76;84.34;100578.19;7395313;19;19990;-67
2023/10/03 04:36:47;;;;;;;30.95;10.95;;;;;;;17.78;84.13;100576.06;7394577;19;19926;-68
2023/10/03 04:39:20;;;;;;;25.63;10.20;;;;;;;17.78;83.65;100576.06;7392827;19;19922;-68
2023/10/03 04:41:48;;;;;;;26.90;10.50;;;;;;;17.77;84.04;100580.72;7392945;19;20523;-67
2023/10/03 04:44:17;;;;;;;25.90;10.43;;;;;;;17.76;84.10;100567.31;7392173;19;19918;-67
2023/10/03 04:46:48;;;;;;;25.58;9.82;;;;;;;17.74;84.23;100563.97;7395092;19;19944;-68
2023/10/03 04:49:17;;;;;;;31.30;11.50;;;;;;;17.73;84.22;100568.59;7395252;19;19922;-68
2023/10/03 04:51:47;;;;;;;31.23;11.52;;;;;;;17.75;84.49;100571.91;7395002;19;19937;-68
2023/10/03 04:54:19;;;;;;;30.02;10.82;;;;;;;17.74;84.54;100570.25;7395538;19;19915;-68
2023/10/03 04:56:48;;;;;;;;;;;;;;;17.62;84.38;100569.38;7396156;19;20282;-68
2023/10/03 04:59:19;;;;;;;26.05;10.27;;;;;;;17.77;84.40;100564.34;7394189;19;19922;-67
2023/10/03 05:01:47;;;;;;;27.63;10.82;;;;;;;17.83;84.51;100566.13;7392540;19;19926;-67
2023/10/03 05:04:16;;;;;;;24.92;9.68;;;;;;;17.87;84.45;100558.31;7395068;19;20291;-68
2023/10/03 05:06:47;;;;;;;23.92;10.65;;;;;;;17.90;84.15;100574.22;7394666;19;19922;-67
2023/10/03 05:09:18;;;;;;;27.92;10.20;;;;;;;17.97;83.73;100577.69;7392464;19;19927;-67
2023/10/03 05:11:48;;;;;;;25.50;9.50;;;;;;;18.04;83.69;100581.13;7396739;19;19930;-69
2023/10/03 05:14:17;;;;;;;29.38;10.02;;;;;;;18.08;83.53;100583.16;7395212;19;19922;-67
2023/10/03 05:16:46;;;;;;;27.88;9.98;;;;;;;18.14;83.63;100586.84;7394983;19;19930;-67
2023/10/03 05:19:15;;;;;;;41.38;10.15;;;;;;;18.18;83.76;100582.59;7394753;19;19978;-67
2023/10/03 05:21:45;;;;;;;24.88;10.00;;;;;;;18.23;83.58;100573.72;7396777;19;19929;-68
2023/10/03 05:24:15;;;;;;;26.60;10.00;;;;;;;18.25;83.70;100571.59;7395448;19;19917;-67
2023/10/03 05:26:48;;;;;;;26.35;8.73;;;;;;;18.26;83.41;100584.16;7394601;19;20261;-68
2023/10/03 05:29:18;;;;;;;24.33;9.90;;;;;;;18.27;83.32;100585.81;7393399;19;19952;-69
2023/10/03 05:31:48;;;;;;;22.13;9.00;;;;;;;18.32;83.90;100583.22;7394864;19;19914;-67
2023/10/03 05:34:20;;;;;;;23.60;9.32;;;;;;;18.35;83.60;100575.41;7395158;19;19919;-67
2023/10/03 05:36:49;;;;;;;28.60;8.80;;;;;;;18.37;83.63;100586.09;7391054;19;19930;-68
2023/10/03 05:39:18;;;;;;;23.17;8.60;;;;;;;18.37;83.34;100576.00;7390592;19;19922;-67
2023/10/03 05:41:53;;;;;;;20.95;9.43;;;;;;;18.38;83.41;100576.84;7391883;19;19926;-67
2023/10/03 05:44:22;;;;;;;24.05;9.23;;;;;;;18.38;83.84;100585.03;7394869;19;19923;-68
2023/10/03 05:46:55;;;;;;;21.48;8.63;;;;;;;18.37;83.66;100580.63;7394647;19;19914;-68
2023/10/03 05:49:25;;;;;;;24.60;9.65;;;;;;;18.42;83.99;100584.28;7393841;19;19934;-67
2023/10/03 05:51:55;;;;;;;24.40;9.02;;;;;;;18.45;83.71;100588.47;7393951;19;19918;-68
2023/10/03 05:54:26;;;;;;;20.70;8.05;;;;;;;18.47;83.68;100589.03;7394018;19;19932;-67
2023/10/03 05:56:58;;;;;;;31.15;9.93;;;;;;;18.49;84.02;100573.28;7391346;19;19930;-68
2023/10/03 05:59:27;;;;;;;24.33;9.23;;;;;;;18.50;83.72;100577.69;7392179;19;19922;-68
2023/10/03 06:01:57;;;;;;;23.00;8.77;;;;;;;18.51;84.41;100587.50;7395650;19;20328;-68
2023/10/03 06:04:26;;;;;;;27.35;9.85;;;;;;;18.51;84.31;100593.78;7396576;19;19947;-68
2023/10/03 06:06:55;;;;;;;20.70;8.55;;;;;;;18.51;84.19;100576.59;7398010;19;19918;-68
2023/10/03 06:09:24;;;;;;;22.42;8.82;;;;;;;18.51;84.35;100582.88;7399586;19;19934;-68
2023/10/03 06:11:53;;;;;;;21.88;8.27;;;;;;;18.51;85.01;100577.41;7401622;19;19922;-68
2023/10/03 06:14:24;;;;;;;22.48;8.68;;;;;;;18.52;85.19;100592.75;7397152;19;20408;-68
2023/10/03 06:16:53;;;;;;;23.08;9.95;;;;;;;18.53;84.71;100594.44;7398737;19;19933;-68
2023/10/03 06:19:21;;;;;;;22.05;8.23;;;;;;;18.55;85.18;100599.66;7401940;19;19922;-69
2023/10/03 06:21:50;;;;;;;20.98;8.90;;;;;;;18.58;85.05;100596.44;7400546;19;19922;-68
2023/10/03 06:24:19;;;;;;;25.33;8.88;;;;;;;18.61;85.48;100603.31;7400098;19;19923;-68
2023/10/03 06:26:48;;;;;;;20.33;7.82;;;;;;;18.61;85.70;100604.16;7400873;19;19915;-68
2023/10/03 06:29:17;;;;;;;22.63;7.85;;;;;;;18.63;85.61;100607.50;7401440;19;20362;-68
2023/10/03 06:31:48;;;;;;;19.60;7.70;;;;;;;18.66;85.66;100601.56;7400830;19;19926;-68
2023/10/03 06:34:18;;;;;;;21.65;8.70;;;;;;;18.67;85.67;100616.03;7397280;19;19924;-68
2023/10/03 06:36:47;;;;;;;22.10;7.93;;;;;;;18.67;86.24;100608.69;7392692;19;20633;-68
2023/10/03 06:39:15;;;;;;;20.98;7.93;;;;;;;18.70;85.89;100612.81;7397628;19;20284;-68
2023/10/03 06:41:44;;;;;;;19.50;8.60;;;;;;;18.70;85.84;100616.38;7398816;19;19922;-68
2023/10/03 06:44:13;;;;;;;24.50;8.02;;;;;;;18.72;86.30;100627.06;7400426;19;20411;-68
2023/10/03 06:46:42;;;;;;;21.42;8.20;;;;;;;18.72;86.46;100625.19;7399612;19;19946;-68
2023/10/03 06:49:13;;;;;;;16.92;7.25;;;;;;;18.75;86.82;100621.97;7399138;19;20297;-68
2023/10/03 06:51:42;;;;;;;23.08;7.75;;;;;;;18.77;86.06;100627.22;7395363;19;19966;-68
2023/10/03 06:54:11;;;;;;;19.25;6.95;;;;;;;18.77;86.01;100638.94;7394660;19;19954;-68
2023/10/03 06:56:41;;;;;;;16.92;7.47;;;;;;;18.78;85.88;100642.50;7396778;19;19923;-68
2023/10/03 06:59:10;;;;;;;21.38;7.40;;;;;;;18.78;85.77;100640.59;7393955;19;19922;-68
2023/10/03 07:01:39;;;;;;;19.30;7.38;;;;;;;18.78;85.41;100650.69;7397546;19;19918;-68
2023/10/03 07:04:08;;;;;;;15.25;6.00;;;;;;;18.77;85.47;100651.78;7398534;19;19933;-68
2023/10/03 07:06:39;;;;;;;16.77;5.93;;;;;;;18.77;85.10;100651.78;7393882;19;19926;-68
2023/10/03 07:09:10;;;;;;;15.93;6.13;;;;;;;18.77;85.03;100662.69;7392243;19;19942;-68
2023/10/03 07:11:39;;;;;;;14.65;4.93;;;;;;;18.74;84.62;100669.44;7395168;19;20315;-68
2023/10/03 07:14:08;;;;;;;14.93;4.57;;;;;;;18.74;84.84;100668.59;7396878;19;19938;-70
2023/10/03 07:16:41;;;;;;;11.70;5.03;;;;;;;18.75;84.58;100670.25;7399729;19;19926;-69
2023/10/03 07:19:10;;;;;;;11.55;4.13;;;;;;;18.75;84.64;100679.28;7395805;19;19930;-68
2023/10/03 07:21:41;;;;;;;12.02;4.43;;;;;;;18.75;84.14;100682.00;7390840;19;19922;-68
2023/10/03 07:24:10;;;;;;;18.13;5.70;;;;;;;18.77;84.16;100688.06;7396981;19;19959;-68
2023/10/03 07:26:39;;;;;;;9.32;3.90;;;;;;;18.78;83.76;100672.50;7395199;19;19918;-66
2023/10/03 07:29:08;;;;;;;11.57;4.03;;;;;;;18.77;83.58;100679.88;7392623;19;19930;-68
2023/10/03 07:31:37;;;;;;;11.43;3.88;;;;;;;18.75;83.28;100682.00;7394385;19;19918;-68
2023/10/03 07:34:07;;;;;;;15.07;3.80;;;;;;;18.73;83.01;100697.78;7398446;19;19963;-69
2023/10/03 07:36:36;;;;;;;9.00;3.53;;;;;;;18.68;83.53;100708.56;7394000;19;19922;-69
2023/10/03 07:39:08;;;;;;;6.40;2.90;;;;;;;18.60;83.40;100695.25;7399164;19;19919;-69
2023/10/03 07:41:37;;;;;;;8.93;3.17;;;;;;;18.55;83.71;100698.69;7397345;19;19931;-68
2023/10/03 07:44:07;;;;;;;9.90;3.67;;;;;;;18.51;83.57;100734.81;7398643;19;19945;-68
2023/10/03 07:46:36;;;;;;;8.05;2.80;;;;;;;18.45;83.54;100722.97;7394805;19;20440;-68
2023/10/03 07:49:07;;;;;;;12.27;3.00;;;;;;;18.46;83.68;100724.63;7398385;19;19931;-69
2023/10/03 07:51:37;;;;;;;10.23;3.20;;;;;;;18.44;83.84;100725.91;7396199;19;20559;-69
2023/10/03 07:54:09;;;;;;;13.05;2.90;;;;;;;18.40;84.02;100720.09;7398566;19;19926;-69
2023/10/03 07:56:42;;;;;;;10.30;2.63;;;;;;;18.38;84.34;100726.84;7398528;19;19910;-68
2023/10/03 07:59:11;;;;;;;9.45;2.53;;;;;;;18.38;84.28;100756.84;7398056;19;19918;-68
2023/10/03 08:01:39;;;;;;;10.80;3.13;;;;;;;18.34;83.98;100734.63;7395004;19;20511;-69
2023/10/03 08:04:12;;;;;;;10.10;3.10;;;;;;;18.35;84.33;100732.75;7396166;19;19919;-68
2023/10/03 08:06:42;;;;;;;6.25;2.50;;;;;;;18.34;84.79;100731.06;7385595;19;19926;-68
2023/10/03 08:09:13;;;;;;;10.43;2.83;;;;;;;18.31;85.10;100750.63;7395773;19;19930;-68
2023/10/03 08:11:46;;;;;;;10.73;3.13;;;;;;;18.24;85.53;100749.91;7385678;19;19950;-67
2023/10/03 08:14:17;;;;;;;9.20;2.67;;;;;;;18.14;87.00;100777.72;7388723;19;19926;-68
2023/10/03 08:16:46;;;;;;;9.18;3.15;;;;;;;18.01;88.38;100786.03;7392598;19;19927;-68
2023/10/03 08:19:21;;;;;;;11.02;3.20;;;;;;;17.87;89.78;100796.25;7388822;19;19962;-69
2023/10/03 08:21:50;;;;;;;10.38;2.70;;;;;;;17.72;91.09;100790.38;7395626;19;19922;-69
2023/10/03 08:24:24;;;;;;;10.15;2.95;;;;;;;17.63;92.37;100818.94;7392625;19;20037;-69
2023/10/03 08:26:58;;;;;;;9.70;3.47;;;;;;;17.59;92.83;100821.31;7395106;19;19966;-68
2023/10/03 08:29:27;;;;;;;9.65;2.60;;;;;;;17.62;93.28;100833.63;7393908;19;20311;-68
2023/10/03 08:31:57;;;;;;;10.00;3.28;;;;;;;17.61;93.58;100831.94;7395183;19;20349;-70
2023/10/03 08:34:26;;;;;;;9.25;3.15;;;;;;;17.55;93.51;100839.13;7396649;19;20288;-69
2023/10/03 08:36:58;;;;;;;10.90;3.75;;;;;;;17.51;93.20;100842.50;7390350;19;19923;-69
2023/10/03 08:39:32;;;;;;;11.13;3.88;;;;;;;17.47;93.04;100844.84;7394466;19;19926;-69
2023/10/03 08:42:12;;;;;;;11.30;3.50;;;;;;;17.43;93.51;100850.97;7395338;19;19919;-69
2023/10/03 08:44:51;;;;;;;9.75;3.17;;;;;;;17.41;92.48;100872.13;7389981;19;19922;-69
2023/10/03 08:47:28;;;;;;;10.27;4.15;;;;;;;17.37;92.51;100873.63;7395461;19;20535;-69
2023/10/03 08:50:10;;;;;;;10.20;3.22;;;;;;;17.32;92.30;100870.72;7394940;19;19958;-68
2023/10/03 08:52:46;;;;;;;8.27;2.33;;;;;;;17.21;91.85;100897.59;7394132;19;19929;-69
2023/10/03 08:55:20;;;;;;;6.88;1.98;;;;;;;17.08;91.17;100913.22;7392578;19;19929;-69
2023/10/03 08:57:48;;;;;;;6.40;2.00;;;;;;;16.94;92.32;100933.38;7392778;19;20002;-70
2023/10/03 09:00:18;;;;;;;6.45;1.60;;;;;;;16.79;92.45;100920.03;7395654;19;19927;-70
2023/10/03 09:02:49;;;;;;;5.07;1.23;;;;;;;16.68;92.41;100929.72;7396287;19;19914;-68
2023/10/03 09:05:20;;;;;;;8.82;1.10;;;;;;;16.64;92.03;100927.66;7393121;19;19922;-69
2023/10/03 09:07:49;;;;;;;7.40;1.40;;;;;;;16.62;91.57;100952.34;7396898;19;19978;-69
2023/10/03 09:10:25;;;;;;;5.35;1.10;;;;;;;16.60;90.81;100972.66;7390814;19;20238;-70
2023/10/03 09:12:56;;;;;;;6.85;1.30;;;;;;;16.60;91.35;100976.22;7392672;19;19922;-68
2023/10/03 09:15:25;;;;;;;5.53;1.20;;;;;;;16.62;91.04;100973.25;7396310;19;19948;-68
2023/10/03 09:17:56;;;;;;;5.47;1.00;;;;;;;16.65;90.83;100983.72;7396032;19;19970;-68
2023/10/03 09:20:31;;;;;;;6.43;1.02;;;;;;;16.64;89.69;100974.72;7395911;19;19930;-71
2023/10/03 09:23:05;;;;;;;9.63;1.60;;;;;;;16.63;88.96;100977.66;7392373;19;19918;-68
2023/10/03 09:25:38;;;;;;;5.78;2.00;;;;;;;16.67;89.25;100995.22;7389269;19;19918;-68
2023/10/03 09:28:09;;;;;;;4.70;1.25;;;;;;;16.68;88.94;100994.19;7393513;19;19950;-68
2023/10/03 09:30:40;;;;;;;2.97;0.82;;;;;;;16.62;90.19;101011.34;7394844;19;19978;-69
2023/10/03 09:33:10;;;;;;;4.13;0.73;;;;;;;16.51;90.45;101020.13;7396106;19;19976;-68
2023/10/03 09:35:39;;;;;;;3.13;0.88;;;;;;;16.38;90.64;101020.16;7391951;19;19926;-69
2023/10/03 09:38:14;;;;;;;4.07;1.23;;;;;;;16.12;90.41;101032.72;7398416;19;19919;-67
2023/10/03 09:40:55;;;;;;;5.20;0.70;;;;;;;16.05;91.39;101045.44;7400724;19;20302;-69
2023/10/03 09:43:27;;;;;;;3.10;1.08;;;;;;;16.04;91.05;101054.66;7398591;19;20261;-68
2023/10/03 09:45:56;;;;;;;6.38;1.42;;;;;;;16.09;90.94;101065.72;7397791;19;19918;-69
2023/10/03 09:48:25;;;;;;;10.23;1.45;;;;;;;16.17;91.00;101073.72;7398139;19;19927;-68
2023/10/03 09:50:55;;;;;;;4.03;1.08;;;;;;;16.17;90.63;101084.56;7400283;19;19926;-68
2023/10/03 09:53:27;;;;;;;8.93;1.20;;;;;;;16.18;90.26;101091.66;7399912;19;19919;-68
2023/10/03 09:55:59;;;;;;;2.58;0.50;;;;;;;16.04;89.24;101100.88;7395549;19;20305;-68
2023/10/03 09:58:31;;;;;;;4.40;0.90;;;;;;;16.06;89.07;101104.19;7397987;19;19990;-68
2023/10/03 10:01:01;;;;;;;5.82;1.20;;;;;;;16.11;89.42;101109.84;7390953;19;20453;-69
2023/10/03 10:03:36;;;;;;;4.93;0.73;;;;;;;16.14;89.01;101112.16;7395932;19;19926;-67
2023/10/03 10:06:28;;;;;;;7.97;0.90;;;;;;;16.14;88.33;101106.72;7395443;19;19963;-67
2023/10/03 10:09:13;;;;;;;4.15;0.63;;;;;;;16.11;87.98;101134.31;7395371;19;19930;-67
2023/10/03 10:12:23;;;;;;;1.95;0.57;;;;;;;15.98;86.76;101158.75;7396221;19;19934;-69
2023/10/03 10:15:21;;;;;;;1.80;0.50;;;;;;;15.70;86.40;101185.22;7393043;19;20305;-68
2023/10/03 10:17:55;;;;;;;1.13;0.63;;;;;;;15.66;87.71;101175.78;7398683;19;19919;-69
2023/10/03 10:20:32;;;;;;;4.43;0.90;;;;;;;15.64;87.44;101175.97;7400137;19;20390;-69
2023/10/03 10:23:21;;;;;;;2.75;0.40;;;;;;;15.66;87.37;101183.94;7396227;19;19929;-70
2023/10/03 10:25:56;;;;;;;2.25;0.47;;;;;;;15.61;87.51;101194.56;7398108;19;19936;-70
2023/10/03 10:28:31;;;;;;;5.45;0.93;;;;;;;15.58;88.82;101194.94;7399317;19;19918;-70
2023/10/03 10:31:21;;;;;;;5.07;0.63;;;;;;;15.52;89.24;101204.75;7392022;19;19918;-69
2023/10/03 10:33:57;;;;;;;2.60;0.60;;;;;;;15.35;89.09;101235.97;7399720;19;19922;-68
2023/10/03 10:37:05;;;;;;;2.97;0.40;;;;;;;15.14;90.27;101227.88;7403872;19;19922;-69
2023/10/03 10:40:09;;;;;;;3.22;0.50;;;;;;;15.04;90.75;101225.50;7401747;19;19955;-69
2023/10/03 10:43:00;;;;;;;2.55;0.63;;;;;;;14.95;90.53;101260.09;7397976;19;19926;-70
2023/10/03 10:45:37;;;;;;;4.50;1.20;;;;;;;14.93;90.07;101243.16;7399541;19;20349;-70
2023/10/03 10:48:07;;;;;;;3.33;0.38;;;;;;;14.93;89.58;101253.16;7397398;19;20485;-69
2023/10/03 10:51:12;;;;;;;2.20;0.60;;;;;;;14.87;90.55;101262.94;7399076;19;19919;-69
2023/10/03 10:53:46;;;;;;;2.80;0.75;;;;;;;14.95;91.19;101259.25;7399657;19;20357;-68
2023/10/03 10:56:16;;;;;;;4.10;1.38;;;;;;;15.00;90.68;101259.50;7399894;19;19919;-69
2023/10/03 10:58:53;;;;;;;7.43;1.85;;;;;;;15.04;90.82;101259.94;7396997;19;19930;-68
2023/10/03 11:01:23;;;;;;;4.97;1.13;;;;;;;15.14;90.34;101277.56;7393467;19;19930;-69
2023/10/03 11:03:52;;;;;;;8.55;3.13;;;;;;;15.14;89.62;101276.75;7398452;19;19923;-69
2023/10/03 11:06:26;;;;;;;10.80;2.65;;;;;;;15.16;89.69;101272.78;7395387;19;19919;-70
2023/10/03 11:08:57;;;;;;;2.15;1.02;;;;;;;15.19;89.38;101282.38;7398880;19;19923;-69
2023/10/03 11:11:38;;;;;;;6.10;1.25;;;;;;;15.19;89.21;101271.53;7399016;19;19946;-69
2023/10/03 11:14:07;;;;;;;7.97;1.30;;;;;;;15.31;88.95;101283.53;7397606;19;19923;-69
2023/10/03 11:16:35;;;;;;;4.18;1.27;;;;;;;15.32;88.75;101290.63;7398997;19;20661;-69
2023/10/03 11:19:04;;;;;;;6.85;1.65;;;;;;;15.38;88.60;101290.69;7398841;19;19939;-68
2023/10/03 11:21:35;;;;;;;6.32;1.85;;;;;;;15.43;88.63;101290.09;7399292;19;20323;-68
2023/10/03 11:24:13;;;;;;;5.05;0.95;;;;;;;15.45;88.36;101297.00;7399343;19;20069;-69
2023/10/03 11:26:47;;;;;;;3.40;0.98;;;;;;;15.57;87.17;101291.91;7397724;19;19927;-68
2023/10/03 11:29:17;;;;;;;5.13;1.33;;;;;;;15.64;86.76;101300.06;7398191;19;19919;-68
2023/10/03 11:31:47;;;;;;;6.43;1.10;;;;;;;15.79;86.40;101298.91;7397202;19;19930;-67
2023/10/03 11:34:31;;;;;;;9.20;1.45;;;;;;;15.89;82.75;101303.97;7393846;19;19910;-68
2023/10/03 11:37:02;;;;;;;4.68;1.58;;;;;;;16.15;82.25;101314.97;7397095;19;19926;-67